createdAt,value
2023-04-06T00:00:18.448Z,-0.16
2023-04-06T00:03:09.706Z,-0.22
2023-04-06T00:05:59.306Z,-0.27
2023-04-06T00:08:47.219Z,-0.31
2023-04-06T00:11:35.312Z,-0.36
2023-04-06T00:14:23.361Z,-0.40
2023-04-06T00:17:11.461Z,-0.46
2023-04-06T00:19:59.640Z,-0.49
2023-04-06T00:22:49.160Z,-0.54
2023-04-06T00:25:37.155Z,-0.58
2023-04-06T00:28:27.128Z,-0.62
2023-04-06T00:31:15.558Z,-0.67
2023-04-06T00:34:03.391Z,-0.72
2023-04-06T00:36:51.130Z,-0.76
2023-04-06T00:39:40.448Z,-0.80
2023-04-06T00:42:28.593Z,-0.83
2023-04-06T00:45:16.457Z,-0.88
2023-04-06T00:48:04.537Z,-0.92
2023-04-06T00:50:52.669Z,-0.97
2023-04-06T00:53:40.902Z,-1.02
2023-04-06T00:56:30.288Z,-1.04
2023-04-06T00:59:24.290Z,-1.08
2023-04-06T01:02:12.544Z,-1.13
2023-04-06T01:05:00.402Z,-1.16
2023-04-06T01:07:48.347Z,-1.21
2023-04-06T01:10:45.828Z,-1.24
2023-04-06T01:13:34.991Z,-1.29
2023-04-06T01:16:23.280Z,-1.30
2023-04-06T01:19:12.670Z,-1.35
2023-04-06T01:22:00.614Z,-1.40
2023-04-06T01:24:50.032Z,-1.44
2023-04-06T01:27:37.932Z,-1.47
2023-04-06T01:30:25.941Z,-1.50
2023-04-06T01:33:14.093Z,-1.52
2023-04-06T01:36:02.437Z,-1.57
2023-04-06T01:38:50.163Z,-1.61
2023-04-06T01:41:39.353Z,-1.66
2023-04-06T01:44:27.436Z,-1.68
2023-04-06T01:47:15.346Z,-1.70
2023-04-06T01:50:06.340Z,-1.74
2023-04-06T01:52:53.996Z,-1.76
2023-04-06T01:55:42.031Z,-1.79
2023-04-06T01:58:31.496Z,-1.83
2023-04-06T02:01:19.495Z,-1.86
2023-04-06T02:04:07.448Z,-1.92
2023-04-06T02:06:55.494Z,-1.95
2023-04-06T02:09:43.385Z,-1.96
2023-04-06T02:12:31.494Z,-1.99
2023-04-06T02:15:20.540Z,-2.00
2023-04-06T02:18:08.843Z,-2.02
2023-04-06T02:20:57.460Z,-2.06
2023-04-06T02:23:45.617Z,-2.08
2023-04-06T02:26:33.757Z,-2.12
2023-04-06T02:29:22.385Z,-2.15
2023-04-06T02:32:11.879Z,-2.17
2023-04-06T02:34:59.982Z,-2.19
2023-04-06T02:37:48.182Z,-2.23
2023-04-06T02:40:36.380Z,-2.28
2023-04-06T02:43:24.150Z,-2.33
2023-04-06T02:46:12.338Z,-2.35
2023-04-06T02:49:02.244Z,-2.35
2023-04-06T02:51:50.179Z,-2.40
2023-04-06T02:54:38.122Z,-2.42
2023-04-06T02:57:26.235Z,-2.45
2023-04-06T03:00:15.126Z,-2.46
2023-04-06T03:03:02.995Z,-2.51
2023-04-06T03:05:52.347Z,-2.52
2023-04-06T03:08:40.465Z,-2.56
2023-04-06T03:11:28.510Z,-2.59
2023-04-06T03:14:18.285Z,-2.63
2023-04-06T03:17:06.378Z,-2.63
2023-04-06T03:19:54.473Z,-2.64
2023-04-06T03:22:43.945Z,-2.67
2023-04-06T03:25:32.122Z,-2.71
2023-04-06T03:28:20.481Z,-2.72
2023-04-06T03:31:08.854Z,-2.72
2023-04-06T03:33:56.669Z,-2.75
2023-04-06T03:36:44.364Z,-2.80
2023-04-06T03:39:33.917Z,-2.82
2023-04-06T03:42:22.140Z,-2.86
2023-04-06T03:45:11.296Z,-2.89
2023-04-06T03:47:59.529Z,-2.90
2023-04-06T03:50:47.700Z,-2.91
2023-04-06T03:53:35.620Z,-2.96
2023-04-06T03:56:25.064Z,-2.96
2023-04-06T03:59:13.023Z,-2.97
2023-04-06T04:02:01.265Z,-3.00
2023-04-06T04:04:49.259Z,-3.05
2023-04-06T04:07:37.497Z,-3.07
2023-04-06T04:10:25.638Z,-3.06
2023-04-06T04:13:14.940Z,-3.08
2023-04-06T04:16:03.043Z,-3.10
2023-04-06T04:18:51.313Z,-3.12
2023-04-06T04:21:46.478Z,-3.16
2023-04-06T04:24:34.622Z,-3.20
2023-04-06T04:27:22.873Z,-3.22
2023-04-06T04:30:12.552Z,-3.26
2023-04-06T04:33:00.615Z,-3.28
2023-04-06T04:35:48.914Z,-3.31
2023-04-06T04:38:36.889Z,-3.32
2023-04-06T04:41:25.051Z,-3.35
2023-04-06T04:44:12.870Z,-3.38
2023-04-06T04:47:02.428Z,-3.40
2023-04-06T04:49:50.748Z,-3.41
2023-04-06T04:52:39.451Z,-3.43
2023-04-06T04:55:27.564Z,-3.43
2023-04-06T04:58:17.574Z,-3.43
2023-04-06T05:01:05.760Z,-3.44
2023-04-06T05:03:55.575Z,-3.47
2023-04-06T05:06:43.505Z,-3.47
2023-04-06T05:09:32.614Z,-3.47
2023-04-06T05:12:20.929Z,-3.48
2023-04-06T05:15:10.156Z,-3.48
2023-04-06T05:17:58.530Z,-3.50
2023-04-06T05:20:47.793Z,-3.51
2023-04-06T05:23:35.636Z,-3.54
2023-04-06T05:26:23.631Z,-3.56
2023-04-06T05:29:12.398Z,-3.56
2023-04-06T05:32:00.878Z,-3.54
2023-04-06T05:34:48.803Z,-3.54
2023-04-06T05:37:38.309Z,-3.53
2023-04-06T05:40:26.295Z,-3.53
2023-04-06T05:43:14.457Z,-3.49
2023-04-06T05:46:02.692Z,-3.49
2023-04-06T05:48:50.787Z,-3.44
2023-04-06T05:51:38.537Z,-3.35
2023-04-06T05:54:28.232Z,-3.28
2023-04-06T05:57:17.419Z,-3.20
2023-04-06T06:00:07.750Z,-3.13
2023-04-06T06:02:55.764Z,-3.05
2023-04-06T06:05:43.790Z,-2.90
2023-04-06T06:08:31.562Z,-2.78
2023-04-06T06:11:21.080Z,-2.63
2023-04-06T06:14:08.894Z,-2.45
2023-04-06T06:16:56.975Z,-2.33
2023-04-06T06:19:45.167Z,-2.31
2023-04-06T06:22:32.941Z,-2.14
2023-04-06T06:25:22.379Z,-1.76
2023-04-06T06:28:11.554Z,-1.60
2023-04-06T06:30:59.518Z,-1.43
2023-04-06T06:33:47.438Z,-1.08
2023-04-06T06:36:36.345Z,-1.03
2023-04-06T06:39:24.490Z,-0.95
2023-04-06T06:42:14.635Z,-0.87
2023-04-06T06:45:04.005Z,-0.71
2023-04-06T06:47:54.882Z,-0.52
2023-04-06T06:50:43.539Z,-0.34
2023-04-06T06:53:31.443Z,-0.18
2023-04-06T06:56:19.519Z,-0.07
2023-04-06T06:59:07.840Z,0.03
2023-04-06T07:01:57.421Z,0.24
2023-04-06T07:04:45.516Z,0.47
2023-04-06T07:07:35.382Z,0.58
2023-04-06T07:10:24.111Z,0.71
2023-04-06T07:13:12.631Z,0.81
2023-04-06T07:16:00.828Z,1.03
2023-04-06T07:18:50.143Z,1.23
2023-04-06T07:21:38.010Z,1.50
2023-04-06T07:24:26.001Z,1.78
2023-04-06T07:27:14.054Z,1.80
2023-04-06T07:30:02.004Z,2.09
2023-04-06T07:32:50.307Z,2.28
2023-04-06T07:35:40.954Z,2.63
2023-04-06T07:38:29.319Z,2.80
2023-04-06T07:41:17.109Z,2.84
2023-04-06T07:44:05.843Z,3.22
2023-04-06T07:46:54.161Z,3.31
2023-04-06T07:49:42.332Z,3.43
2023-04-06T07:52:32.869Z,3.54
2023-04-06T07:55:20.736Z,3.60
2023-04-06T07:58:08.844Z,3.86
2023-04-06T08:00:58.716Z,4.03
2023-04-06T08:03:46.785Z,4.16
2023-04-06T08:06:35.253Z,4.43
2023-04-06T08:09:24.370Z,4.80
2023-04-06T08:12:12.549Z,4.93
2023-04-06T08:15:00.809Z,5.13
2023-04-06T08:17:48.888Z,5.10
2023-04-06T08:20:37.700Z,5.50
2023-04-06T08:23:25.777Z,5.63
2023-04-06T08:26:15.437Z,5.81
2023-04-06T08:29:05.059Z,6.26
2023-04-06T08:31:52.873Z,6.49
2023-04-06T08:34:41.070Z,6.69
2023-04-06T08:37:29.790Z,6.89
2023-04-06T08:40:17.906Z,7.20
2023-04-06T08:43:12.515Z,7.25
2023-04-06T08:46:01.449Z,7.57
2023-04-06T08:48:50.889Z,7.65
2023-04-06T08:51:44.037Z,7.85
2023-04-06T08:54:31.962Z,8.10
2023-04-06T08:57:21.183Z,8.37
2023-04-06T09:00:13.365Z,8.62
2023-04-06T09:03:02.084Z,8.83
2023-04-06T09:05:51.613Z,9.21
2023-04-06T09:08:43.552Z,9.40
2023-04-06T09:11:42.885Z,9.18
2023-04-06T09:14:38.444Z,9.80
2023-04-06T09:17:30.730Z,10.40
2023-04-06T09:20:26.843Z,10.23
2023-04-06T09:23:21.010Z,10.25
2023-04-06T09:26:11.050Z,10.44
2023-04-06T09:29:00.549Z,10.13
2023-04-06T09:31:48.609Z,10.62
2023-04-06T09:34:38.933Z,10.78
2023-04-06T09:37:29.977Z,11.39
2023-04-06T09:40:19.997Z,11.59
2023-04-06T09:43:08.072Z,13.01
2023-04-06T09:45:57.491Z,12.86
2023-04-06T09:48:46.133Z,13.34
2023-04-06T09:51:39.985Z,13.97
2023-04-06T09:54:32.303Z,14.89
2023-04-06T09:57:27.590Z,15.45
2023-04-06T10:00:20.327Z,15.37
2023-04-06T10:03:21.437Z,16.20
2023-04-06T10:06:14.917Z,17.25
2023-04-06T10:09:06.596Z,17.75
2023-04-06T10:11:54.895Z,16.34
2023-04-06T10:14:42.860Z,14.86
2023-04-06T10:17:31.060Z,14.86
2023-04-06T10:20:24.581Z,15.45
2023-04-06T10:23:17.102Z,17.83
2023-04-06T10:26:06.725Z,18.31
2023-04-06T10:28:55.845Z,17.50
2023-04-06T10:31:46.364Z,17.36
2023-04-06T10:34:38.104Z,15.47
2023-04-06T10:37:26.062Z,15.68
2023-04-06T10:40:22.237Z,16.95
2023-04-06T10:43:13.673Z,14.93
2023-04-06T10:46:03.524Z,17.47
2023-04-06T10:48:51.814Z,18.61
2023-04-06T10:51:41.421Z,17.79
2023-04-06T10:54:30.116Z,15.42
2023-04-06T10:57:18.248Z,15.97
2023-04-06T11:00:12.602Z,17.02
2023-04-06T11:03:03.001Z,19.15
2023-04-06T11:05:52.959Z,19.67
2023-04-06T11:08:41.606Z,17.57
2023-04-06T11:11:30.161Z,19.99
2023-04-06T11:14:17.824Z,20.95
2023-04-06T11:17:07.465Z,21.60
2023-04-06T11:19:56.016Z,22.27
2023-04-06T11:22:53.725Z,22.45
2023-04-06T11:25:51.813Z,22.41
2023-04-06T11:28:40.362Z,22.75
2023-04-06T11:31:28.817Z,22.78
2023-04-06T11:34:20.201Z,23.13
2023-04-06T11:37:11.053Z,23.02
2023-04-06T11:39:58.916Z,21.88
2023-04-06T11:42:55.941Z,20.69
2023-04-06T11:45:45.190Z,20.84
2023-04-06T11:48:34.479Z,22.31
2023-04-06T11:51:27.588Z,23.18
2023-04-06T11:54:15.451Z,23.67
2023-04-06T11:57:03.358Z,22.74
2023-04-06T11:59:51.507Z,21.77
2023-04-06T12:02:40.209Z,23.39
2023-04-06T12:05:28.605Z,23.86
2023-04-06T12:08:18.152Z,24.26
2023-04-06T12:11:05.920Z,24.48
2023-04-06T12:13:53.886Z,24.27
2023-04-06T12:16:42.587Z,24.23
2023-04-06T12:19:31.145Z,24.16
2023-04-06T12:22:20.846Z,23.66
2023-04-06T12:25:10.670Z,24.10
2023-04-06T12:27:59.011Z,24.47
2023-04-06T12:30:47.173Z,24.65
2023-04-06T12:33:35.402Z,24.57
2023-04-06T12:36:23.695Z,21.80
2023-04-06T12:39:12.046Z,22.83
2023-04-06T12:42:01.205Z,23.63
2023-04-06T12:44:49.266Z,24.34
2023-04-06T12:47:38.692Z,24.80
2023-04-06T12:50:27.509Z,24.97
2023-04-06T12:53:15.228Z,25.05
2023-04-06T12:56:04.469Z,25.06
2023-04-06T12:58:54.434Z,24.57
2023-04-06T13:01:42.553Z,24.85
2023-04-06T13:04:30.363Z,25.00
2023-04-06T13:07:18.478Z,24.28
2023-04-06T13:10:06.985Z,21.95
2023-04-06T13:12:55.076Z,22.86
2023-04-06T13:15:44.601Z,22.23
2023-04-06T13:18:33.421Z,21.37
2023-04-06T13:21:21.840Z,23.16
2023-04-06T13:24:10.252Z,23.10
2023-04-06T13:26:58.508Z,23.04
2023-04-06T13:29:46.298Z,23.26
2023-04-06T13:32:36.248Z,23.25
2023-04-06T13:35:24.015Z,23.98
2023-04-06T13:38:12.188Z,22.46
2023-04-06T13:41:00.553Z,22.49
2023-04-06T13:43:48.558Z,22.61
2023-04-06T13:46:36.373Z,22.82
2023-04-06T13:49:26.035Z,23.91
2023-04-06T13:52:14.175Z,23.43
2023-04-06T13:55:03.340Z,24.14
2023-04-06T13:57:51.300Z,22.60
2023-04-06T14:00:39.294Z,21.91
2023-04-06T14:03:27.338Z,20.92
2023-04-06T14:09:08.126Z,20.43
2023-04-06T14:11:56.793Z,21.35
2023-04-06T14:14:44.898Z,21.39
2023-04-06T14:17:33.082Z,20.56
2023-04-06T14:20:21.760Z,21.47
2023-04-06T14:23:11.640Z,21.84
2023-04-06T14:26:06.871Z,21.67
2023-04-06T14:28:54.969Z,20.65
2023-04-06T14:31:42.853Z,21.61
2023-04-06T14:34:30.798Z,21.93
2023-04-06T14:37:19.552Z,22.44
2023-04-06T14:40:10.339Z,22.54
2023-04-06T14:42:58.177Z,22.40
2023-04-06T14:45:46.086Z,22.64
2023-04-06T14:48:33.965Z,22.82
2023-04-06T14:51:21.891Z,22.86
2023-04-06T14:54:10.040Z,22.93
2023-04-06T14:56:59.068Z,23.10
2023-04-06T14:59:46.733Z,23.13
2023-04-06T15:02:35.689Z,22.98
2023-04-06T15:05:23.655Z,23.19
2023-04-06T15:08:12.534Z,19.62
2023-04-06T15:11:02.107Z,19.05
2023-04-06T15:13:51.631Z,20.68
2023-04-06T15:16:39.470Z,19.19
2023-04-06T15:19:27.905Z,19.20
2023-04-06T15:22:15.961Z,21.27
2023-04-06T15:25:03.892Z,21.84
2023-04-06T15:27:52.930Z,21.51
2023-04-06T15:30:42.069Z,21.69
2023-04-06T15:33:30.073Z,21.01
2023-04-06T15:36:27.231Z,21.54
2023-04-06T15:39:15.087Z,21.95
2023-04-06T15:42:03.254Z,20.02
2023-04-06T15:44:51.163Z,17.77
2023-04-06T15:47:42.251Z,17.90
2023-04-06T15:50:30.038Z,18.64
2023-04-06T15:53:18.086Z,20.33
2023-04-06T15:56:08.606Z,22.20
2023-04-06T15:58:56.463Z,22.84
2023-04-06T16:01:44.371Z,22.98
2023-04-06T16:04:33.741Z,23.03
2023-04-06T16:07:22.007Z,22.70
2023-04-06T16:10:11.743Z,22.57
2023-04-06T16:12:59.704Z,22.61
2023-04-06T16:15:52.054Z,21.59
2023-04-06T16:18:40.105Z,21.96
2023-04-06T16:21:29.393Z,21.78
2023-04-06T16:24:17.341Z,21.94
2023-04-06T16:27:05.140Z,21.82
2023-04-06T16:29:53.323Z,21.71
2023-04-06T16:32:43.393Z,21.50
2023-04-06T16:35:31.263Z,21.33
2023-04-06T16:38:22.761Z,21.18
2023-04-06T16:41:10.674Z,20.95
2023-04-06T16:43:58.844Z,20.74
2023-04-06T16:46:47.718Z,20.56
2023-04-06T16:49:35.506Z,20.39
2023-04-06T16:52:23.531Z,20.14
2023-04-06T16:55:13.318Z,19.80
2023-04-06T16:58:02.278Z,19.54
2023-04-06T17:00:50.219Z,19.40
2023-04-06T17:03:38.051Z,19.22
2023-04-06T17:06:27.095Z,19.05
2023-04-06T17:09:14.733Z,18.84
2023-04-06T17:12:04.225Z,18.63
2023-04-06T17:14:52.442Z,18.42
2023-04-06T17:17:40.593Z,18.20
2023-04-06T17:20:28.274Z,17.98
2023-04-06T17:23:17.103Z,17.75
2023-04-06T17:26:06.076Z,17.50
2023-04-06T17:28:56.565Z,17.24
2023-04-06T17:31:46.255Z,16.97
2023-04-06T17:34:34.045Z,16.72
2023-04-06T17:37:22.069Z,16.47
2023-04-06T17:40:11.097Z,16.21
2023-04-06T17:42:59.078Z,15.94
2023-04-06T17:45:51.418Z,15.67
2023-04-06T17:48:39.609Z,15.40
2023-04-06T17:51:27.686Z,15.14
2023-04-06T17:54:15.697Z,14.89
2023-04-06T17:57:03.832Z,14.63
2023-04-06T17:59:51.610Z,14.36
2023-04-06T18:02:40.936Z,14.08
2023-04-06T18:05:28.821Z,13.83
2023-04-06T18:08:16.861Z,13.57
2023-04-06T18:11:04.793Z,13.34
2023-04-06T18:13:52.781Z,13.08
2023-04-06T18:16:42.403Z,12.84
2023-04-06T18:19:34.292Z,12.62
2023-04-06T18:22:22.214Z,12.37
2023-04-06T18:25:10.664Z,12.16
2023-04-06T18:27:58.798Z,11.96
2023-04-06T18:30:46.731Z,11.75
2023-04-06T18:33:34.717Z,11.56
2023-04-06T18:36:24.116Z,11.35
2023-04-06T18:39:13.588Z,11.17
2023-04-06T18:42:03.008Z,10.98
2023-04-06T18:44:51.208Z,10.80
2023-04-06T18:47:39.196Z,10.62
2023-04-06T18:50:27.363Z,10.42
2023-04-06T18:53:16.757Z,10.25
2023-04-06T18:56:06.259Z,10.08
2023-04-06T18:58:54.272Z,9.92
2023-04-06T19:01:44.874Z,9.77
2023-04-06T19:04:33.262Z,9.60
2023-04-06T19:07:22.291Z,9.45
2023-04-06T19:10:12.651Z,9.29
2023-04-06T19:13:00.948Z,9.14
2023-04-06T19:15:48.604Z,8.99
2023-04-06T19:18:37.298Z,8.85
2023-04-06T19:21:27.848Z,8.70
2023-04-06T19:24:15.931Z,8.56
2023-04-06T19:27:05.687Z,8.43
2023-04-06T19:29:54.360Z,8.29
2023-04-06T19:32:42.140Z,8.15
2023-04-06T19:35:30.639Z,8.01
2023-04-06T19:38:18.530Z,7.89
2023-04-06T19:41:07.118Z,7.74
2023-04-06T19:43:57.783Z,7.61
2023-04-06T19:46:46.443Z,7.49
2023-04-06T19:49:34.253Z,7.40
2023-04-06T19:52:22.708Z,7.27
2023-04-06T19:55:11.644Z,7.16
2023-04-06T19:57:59.670Z,7.08
2023-04-06T20:00:49.101Z,6.95
2023-04-06T20:03:37.432Z,6.83
2023-04-06T20:06:25.522Z,6.70
2023-04-06T20:09:15.666Z,6.59
2023-04-06T20:12:03.773Z,6.50
2023-04-06T20:14:52.047Z,6.39
2023-04-06T20:17:42.767Z,6.30
2023-04-06T20:20:31.098Z,6.20
2023-04-06T20:23:19.336Z,6.11
2023-04-06T20:26:11.054Z,6.02
2023-04-06T20:28:58.822Z,5.94
2023-04-06T20:31:46.952Z,5.86
2023-04-06T20:34:37.275Z,5.76
2023-04-06T20:37:25.553Z,5.67
2023-04-06T20:40:13.845Z,5.58
2023-04-06T20:43:02.877Z,5.47
2023-04-06T20:45:51.723Z,5.38
2023-04-06T20:48:39.817Z,5.31
2023-04-06T20:51:29.497Z,5.24
2023-04-06T20:54:17.738Z,5.16
2023-04-06T20:57:05.502Z,5.06
2023-04-06T20:59:53.603Z,4.99
2023-04-06T21:02:42.292Z,4.92
2023-04-06T21:05:31.002Z,4.85
2023-04-06T21:08:19.994Z,4.78
2023-04-06T21:11:07.798Z,4.71
2023-04-06T21:13:55.767Z,4.64
2023-04-06T21:16:44.065Z,4.55
2023-04-06T21:19:32.032Z,4.49
2023-04-06T21:22:20.021Z,4.40
2023-04-06T21:25:11.066Z,4.32
2023-04-06T21:27:59.674Z,4.24
2023-04-06T21:30:47.701Z,4.17
2023-04-06T21:33:35.922Z,4.14
2023-04-06T21:36:23.710Z,4.06
2023-04-06T21:39:14.584Z,3.98
2023-04-06T21:42:03.818Z,3.91
2023-04-06T21:44:51.676Z,3.84
2023-04-06T21:47:39.911Z,3.76
2023-04-06T21:50:27.601Z,3.69
2023-04-06T21:53:15.796Z,3.63
2023-04-06T21:56:03.905Z,3.57
2023-04-06T21:58:54.049Z,3.51
2023-04-06T22:01:41.868Z,3.40
2023-04-06T22:04:31.684Z,3.36
2023-04-06T22:07:19.766Z,3.31
2023-04-06T22:10:08.881Z,3.25
2023-04-06T22:12:57.332Z,3.20
2023-04-06T22:15:46.857Z,3.16
2023-04-06T22:18:36.596Z,3.12
2023-04-06T22:21:26.565Z,3.04
2023-04-06T22:24:15.171Z,2.97
2023-04-06T22:27:04.147Z,2.91
2023-04-06T22:29:51.926Z,2.84
2023-04-06T22:32:41.232Z,2.81
2023-04-06T22:35:29.326Z,2.78
2023-04-06T22:38:17.607Z,2.75
2023-04-06T22:41:07.218Z,2.68
2023-04-06T22:43:56.216Z,2.64
2023-04-06T22:46:44.199Z,2.60
2023-04-06T22:49:33.803Z,2.51
2023-04-06T22:52:21.967Z,2.47
2023-04-06T22:55:10.183Z,2.45
2023-04-06T22:57:57.880Z,2.41
2023-04-06T23:00:45.810Z,2.39
2023-04-06T23:03:34.019Z,2.38
2023-04-06T23:06:23.615Z,2.33
2023-04-06T23:09:11.808Z,2.27
2023-04-06T23:11:59.785Z,2.23
2023-04-06T23:14:47.889Z,2.21
2023-04-06T23:17:37.109Z,2.16
2023-04-06T23:20:25.589Z,2.18
2023-04-06T23:23:19.025Z,2.16
2023-04-06T23:26:07.787Z,2.09
2023-04-06T23:29:00.847Z,2.04
2023-04-06T23:31:48.953Z,1.99
2023-04-06T23:34:39.067Z,1.99
2023-04-06T23:37:27.298Z,1.96
2023-04-06T23:40:16.616Z,1.92
2023-04-06T23:43:04.440Z,1.86
2023-04-06T23:45:52.165Z,1.83
2023-04-06T23:48:44.310Z,1.80
2023-04-06T23:51:32.484Z,1.79
2023-04-06T23:54:22.406Z,1.77
2023-04-06T23:57:11.855Z,1.77
